createdAt,value
2023-01-18T00:00:34.147Z,-3.16
2023-01-18T00:03:02.134Z,-3.28
2023-01-18T00:05:29.897Z,-3.34
2023-01-18T00:07:57.739Z,-3.23
2023-01-18T00:10:25.500Z,-3.22
2023-01-18T00:12:53.346Z,-3.18
2023-01-18T00:15:22.495Z,-3.19
2023-01-18T00:17:51.506Z,-3.21
2023-01-18T00:20:21.306Z,-3.21
2023-01-18T00:22:49.571Z,-3.25
2023-01-18T00:25:18.191Z,-3.18
2023-01-18T00:27:49.035Z,-3.04
2023-01-18T00:30:18.456Z,-3.15
2023-01-18T00:32:47.586Z,-3.12
2023-01-18T00:35:16.047Z,-2.85
2023-01-18T00:37:45.146Z,-2.73
2023-01-18T00:40:13.297Z,-2.66
2023-01-18T00:43:00.096Z,-2.60
2023-01-18T00:45:28.025Z,-2.69
2023-01-18T00:47:58.199Z,-2.71
2023-01-18T00:50:26.026Z,-2.61
2023-01-18T00:52:57.599Z,-2.59
2023-01-18T00:55:25.792Z,-2.77
2023-01-18T00:57:53.742Z,-2.92
2023-01-18T01:00:26.857Z,-3.04
2023-01-18T01:02:54.921Z,-3.16
2023-01-18T01:05:43.377Z,-3.28
2023-01-18T01:08:16.693Z,-3.36
2023-01-18T01:10:46.097Z,-3.39
2023-01-18T01:13:32.225Z,-3.52
2023-01-18T01:16:18.100Z,-3.36
2023-01-18T01:19:03.391Z,-3.32
2023-01-18T01:21:50.084Z,-3.27
2023-01-18T01:24:35.404Z,-3.31
2023-01-18T01:27:03.159Z,-3.22
2023-01-18T01:29:30.923Z,-3.15
2023-01-18T01:31:58.686Z,-3.18
2023-01-18T01:34:27.081Z,-3.19
2023-01-18T01:36:56.232Z,-3.23
2023-01-18T01:39:24.595Z,-3.31
2023-01-18T01:41:55.334Z,-3.36
2023-01-18T01:44:51.192Z,-3.14
2023-01-18T01:47:35.901Z,-2.95
2023-01-18T01:50:10.330Z,-2.73
2023-01-18T01:52:42.727Z,-2.77
2023-01-18T01:55:16.082Z,-2.91
2023-01-18T01:57:47.380Z,-2.88
2023-01-18T02:00:19.510Z,-2.66
2023-01-18T02:02:50.352Z,-2.61
2023-01-18T02:05:19.491Z,-2.56
2023-01-18T02:07:49.284Z,-2.59
2023-01-18T02:10:17.325Z,-2.52
2023-01-18T02:12:47.535Z,-2.52
2023-01-18T02:15:15.419Z,-2.59
2023-01-18T02:18:16.967Z,-2.67
2023-01-18T02:21:12.588Z,-2.83
2023-01-18T02:24:25.361Z,-2.91
2023-01-18T02:27:05.560Z,-2.77
2023-01-18T02:29:57.048Z,-2.70
2023-01-18T02:32:34.938Z,-2.79
2023-01-18T02:35:08.558Z,-2.84
2023-01-18T02:37:43.575Z,-2.87
2023-01-18T02:40:22.423Z,-2.81
2023-01-18T02:43:08.365Z,-2.77
2023-01-18T02:45:59.696Z,-2.48
2023-01-18T02:48:34.229Z,-2.50
2023-01-18T02:51:02.001Z,-2.63
2023-01-18T02:53:31.040Z,-2.80
2023-01-18T02:56:02.620Z,-3.01
2023-01-18T02:58:33.909Z,-3.05
2023-01-18T03:01:08.416Z,-2.94
2023-01-18T03:03:37.216Z,-2.84
2023-01-18T03:06:11.566Z,-2.76
2023-01-18T03:08:43.959Z,-2.66
2023-01-18T03:11:16.737Z,-2.53
2023-01-18T03:13:58.455Z,-2.64
2023-01-18T03:16:39.548Z,-2.61
2023-01-18T03:19:31.877Z,-2.59
2023-01-18T03:22:02.036Z,-2.57
2023-01-18T03:24:30.326Z,-2.71
2023-01-18T03:27:18.251Z,-2.88
2023-01-18T03:30:05.019Z,-3.09
2023-01-18T03:32:53.179Z,-3.18
2023-01-18T03:35:26.685Z,-3.23
2023-01-18T03:37:57.297Z,-3.23
2023-01-18T03:40:28.678Z,-3.19
2023-01-18T03:43:03.058Z,-3.25
2023-01-18T03:45:33.492Z,-3.22
2023-01-18T03:48:03.215Z,-3.28
2023-01-18T03:50:45.067Z,-3.34
2023-01-18T03:53:16.637Z,-3.27
2023-01-18T03:55:49.913Z,-3.12
2023-01-18T03:58:23.380Z,-3.02
2023-01-18T04:00:53.030Z,-2.84
2023-01-18T04:03:22.249Z,-2.79
2023-01-18T04:05:50.146Z,-2.70
2023-01-18T04:08:21.800Z,-2.59
2023-01-18T04:10:49.544Z,-2.56
2023-01-18T04:13:18.476Z,-2.60
2023-01-18T04:15:46.198Z,-2.66
2023-01-18T04:18:14.000Z,-2.57
2023-01-18T04:20:43.201Z,-2.46
2023-01-18T04:23:11.295Z,-2.32
2023-01-18T04:25:40.681Z,-2.29
2023-01-18T04:28:09.122Z,-2.32
2023-01-18T04:30:36.859Z,-2.30
2023-01-18T04:33:04.649Z,-2.32
2023-01-18T04:35:32.401Z,-2.26
2023-01-18T04:38:01.482Z,-2.26
2023-01-18T04:40:29.270Z,-2.33
2023-01-18T04:42:57.409Z,-2.43
2023-01-18T04:45:25.498Z,-2.48
2023-01-18T04:47:53.240Z,-2.54
2023-01-18T04:50:21.003Z,-2.57
2023-01-18T04:52:48.773Z,-2.60
2023-01-18T04:55:18.036Z,-2.52
2023-01-18T04:57:45.979Z,-2.69
2023-01-18T05:00:15.514Z,-2.84
2023-01-18T05:02:43.351Z,-2.71
2023-01-18T05:05:11.182Z,-2.64
2023-01-18T05:07:38.898Z,-2.61
2023-01-18T05:10:07.479Z,-2.57
2023-01-18T05:12:37.352Z,-2.48
2023-01-18T05:15:06.819Z,-2.42
2023-01-18T05:17:35.167Z,-2.39
2023-01-18T05:20:04.371Z,-2.39
2023-01-18T05:22:32.975Z,-2.45
2023-01-18T05:25:00.830Z,-2.36
2023-01-18T05:27:28.605Z,-2.45
2023-01-18T05:29:57.667Z,-2.49
2023-01-18T05:32:25.474Z,-2.49
2023-01-18T05:34:53.197Z,-2.46
2023-01-18T05:37:20.917Z,-2.49
2023-01-18T05:39:48.648Z,-2.42
2023-01-18T05:42:16.443Z,-2.36
2023-01-18T05:44:44.204Z,-2.26
2023-01-18T05:47:13.340Z,-2.21
2023-01-18T05:49:42.077Z,-2.30
2023-01-18T05:52:09.948Z,-2.28
2023-01-18T05:54:37.722Z,-2.39
2023-01-18T05:57:05.475Z,-2.38
2023-01-18T05:59:33.401Z,-2.28
2023-01-18T06:02:01.224Z,-2.22
2023-01-18T06:04:30.340Z,-2.18
2023-01-18T06:06:58.181Z,-2.21
2023-01-18T06:09:25.908Z,-2.13
2023-01-18T06:11:53.685Z,-2.06
2023-01-18T06:14:21.392Z,-2.06
2023-01-18T06:16:49.679Z,-2.23
2023-01-18T06:19:17.690Z,-2.13
2023-01-18T06:21:46.966Z,-2.15
2023-01-18T06:24:14.712Z,-2.10
2023-01-18T06:26:42.541Z,-2.03
2023-01-18T06:29:10.283Z,-1.98
2023-01-18T06:31:38.043Z,-2.01
2023-01-18T06:34:09.347Z,-2.06
2023-01-18T06:36:37.356Z,-1.99
2023-01-18T06:39:06.918Z,-1.92
2023-01-18T06:41:34.681Z,-1.89
2023-01-18T06:44:02.451Z,-1.79
2023-01-18T06:46:30.288Z,-1.78
2023-01-18T06:48:58.017Z,-1.72
2023-01-18T06:51:26.156Z,-1.71
2023-01-18T06:53:54.034Z,-1.75
2023-01-18T06:56:23.134Z,-1.70
2023-01-18T06:58:51.973Z,-1.60
2023-01-18T07:01:19.870Z,-1.71
2023-01-18T07:03:47.789Z,-1.71
2023-01-18T07:06:15.845Z,-1.74
2023-01-18T07:08:43.631Z,-1.71
2023-01-18T07:11:14.196Z,-1.67
2023-01-18T07:13:43.694Z,-1.71
2023-01-18T07:16:18.002Z,-1.72
2023-01-18T07:18:47.702Z,-1.66
2023-01-18T07:21:17.049Z,-1.63
2023-01-18T07:23:44.956Z,-1.63
2023-01-18T07:26:15.596Z,-1.54
2023-01-18T07:28:45.551Z,-1.61
2023-01-18T07:31:13.933Z,-1.63
2023-01-18T07:33:41.766Z,-1.56
2023-01-18T07:36:10.895Z,-1.53
2023-01-18T07:38:39.505Z,-1.51
2023-01-18T07:41:09.169Z,-1.51
2023-01-18T07:43:39.452Z,-1.47
2023-01-18T07:46:11.392Z,-1.36
2023-01-18T07:48:39.257Z,-1.33
2023-01-18T07:51:09.292Z,-1.30
2023-01-18T07:53:38.321Z,-1.32
2023-01-18T07:56:08.040Z,-1.25
2023-01-18T07:58:36.503Z,-1.17
2023-01-18T08:01:05.761Z,-1.16
2023-01-18T08:03:34.968Z,-1.13
2023-01-18T08:06:03.563Z,-1.13
2023-01-18T08:08:31.782Z,-1.02
2023-01-18T08:11:01.646Z,-0.93
2023-01-18T08:13:29.947Z,-0.82
2023-01-18T08:16:01.134Z,-0.78
2023-01-18T08:18:28.991Z,-0.75
2023-01-18T08:20:58.349Z,-0.74
2023-01-18T08:23:25.996Z,-0.69
2023-01-18T08:25:54.796Z,-0.60
2023-01-18T08:28:22.994Z,-0.45
2023-01-18T08:30:50.897Z,-0.25
2023-01-18T08:33:18.694Z,-0.03
2023-01-18T08:35:48.293Z,0.37
2023-01-18T08:38:17.601Z,0.82
2023-01-18T08:40:45.240Z,1.16
2023-01-18T08:43:12.988Z,1.17
2023-01-18T08:45:40.767Z,1.07
2023-01-18T08:48:11.707Z,1.09
2023-01-18T08:50:40.091Z,1.04
2023-01-18T08:53:08.152Z,1.22
2023-01-18T08:55:38.336Z,1.31
2023-01-18T08:58:06.123Z,1.33
2023-01-18T09:00:33.940Z,1.34
2023-01-18T09:03:02.729Z,1.12
2023-01-18T09:05:31.011Z,0.96
2023-01-18T09:07:59.059Z,1.15
2023-01-18T09:10:26.885Z,1.27
2023-01-18T09:12:57.104Z,1.36
2023-01-18T09:15:25.166Z,1.41
2023-01-18T09:17:52.904Z,1.48
2023-01-18T09:20:20.652Z,1.68
2023-01-18T09:22:48.805Z,1.98
2023-01-18T09:25:18.439Z,2.09
2023-01-18T09:27:46.813Z,2.09
2023-01-18T09:30:18.018Z,2.39
2023-01-18T09:32:45.801Z,2.60
2023-01-18T09:35:17.970Z,2.42
2023-01-18T09:37:46.336Z,2.30
2023-01-18T09:40:18.941Z,2.23
2023-01-18T09:42:48.429Z,2.22
2023-01-18T09:45:25.773Z,2.36
2023-01-18T09:48:01.859Z,2.70
2023-01-18T09:50:30.439Z,2.93
2023-01-18T09:53:04.748Z,3.52
2023-01-18T09:55:43.499Z,3.82
2023-01-18T09:58:27.492Z,4.69
2023-01-18T10:01:03.573Z,4.90
2023-01-18T10:03:39.755Z,5.19
2023-01-18T10:06:15.532Z,5.57
2023-01-18T10:08:53.269Z,6.19
2023-01-18T10:11:30.082Z,6.80
2023-01-18T10:14:05.191Z,7.31
2023-01-18T10:16:37.738Z,8.06
2023-01-18T10:19:15.030Z,8.61
2023-01-18T10:21:51.869Z,8.73
2023-01-18T10:24:28.860Z,8.78
2023-01-18T10:27:03.458Z,8.92
2023-01-18T10:29:45.854Z,8.83
2023-01-18T10:32:19.727Z,7.67
2023-01-18T10:34:50.545Z,7.80
2023-01-18T10:37:28.302Z,7.72
2023-01-18T10:39:58.918Z,8.25
2023-01-18T10:42:32.165Z,8.17
2023-01-18T10:44:59.931Z,9.19
2023-01-18T10:47:29.036Z,9.20
2023-01-18T10:50:00.266Z,9.62
2023-01-18T10:52:29.659Z,9.62
2023-01-18T10:54:58.041Z,9.30
2023-01-18T10:57:29.716Z,9.22
2023-01-18T10:59:58.382Z,9.24
2023-01-18T11:02:32.683Z,9.05
2023-01-18T11:05:06.246Z,9.50
2023-01-18T11:07:34.064Z,8.88
2023-01-18T11:10:09.479Z,8.24
2023-01-18T11:12:44.215Z,8.54
2023-01-18T11:15:25.066Z,8.40
2023-01-18T11:18:08.778Z,9.31
2023-01-18T11:20:45.726Z,9.65
2023-01-18T11:23:23.177Z,9.97
2023-01-18T11:25:56.370Z,10.11
2023-01-18T11:28:27.276Z,9.23
2023-01-18T11:30:58.337Z,9.73
2023-01-18T11:33:29.403Z,9.94
2023-01-18T11:35:59.553Z,9.07
2023-01-18T11:38:30.451Z,9.29
2023-01-18T11:41:07.013Z,9.61
2023-01-18T11:43:39.237Z,9.15
2023-01-18T11:46:22.498Z,9.37
2023-01-18T11:48:56.280Z,10.09
2023-01-18T11:51:30.718Z,10.23
2023-01-18T11:54:03.604Z,10.02
2023-01-18T11:56:37.707Z,9.88
2023-01-18T11:59:13.472Z,10.64
2023-01-18T12:02:11.005Z,10.30
2023-01-18T12:04:54.250Z,10.23
2023-01-18T12:07:33.440Z,9.84
2023-01-18T12:10:02.948Z,9.37
2023-01-18T12:12:44.739Z,9.20
2023-01-18T12:15:30.275Z,9.61
2023-01-18T12:18:14.149Z,8.64
2023-01-18T12:20:53.699Z,8.55
2023-01-18T12:23:45.466Z,8.17
2023-01-18T12:26:36.326Z,7.86
2023-01-18T12:29:28.958Z,8.47
2023-01-18T12:32:07.918Z,7.24
2023-01-18T12:34:42.757Z,6.69
2023-01-18T12:37:36.318Z,5.67
2023-01-18T12:40:18.964Z,6.50
2023-01-18T12:42:57.924Z,6.94
2023-01-18T12:45:36.005Z,6.67
2023-01-18T12:48:14.149Z,6.90
2023-01-18T12:50:44.418Z,7.15
2023-01-18T12:53:19.350Z,6.87
2023-01-18T12:55:50.434Z,6.83
2023-01-18T12:58:23.336Z,6.08
2023-01-18T13:00:54.739Z,6.30
2023-01-18T13:03:26.912Z,6.40
2023-01-18T13:06:01.608Z,6.79
2023-01-18T13:08:39.308Z,6.87
2023-01-18T13:11:11.496Z,6.79
2023-01-18T13:13:41.219Z,6.87
2023-01-18T13:16:23.106Z,6.84
2023-01-18T13:18:57.980Z,6.13
2023-01-18T13:21:38.888Z,5.51
2023-01-18T13:24:16.709Z,4.96
2023-01-18T13:26:45.705Z,4.52
2023-01-18T13:29:24.155Z,3.98
2023-01-18T13:31:52.881Z,3.76
2023-01-18T13:34:28.589Z,3.69
2023-01-18T13:37:13.109Z,3.63
2023-01-18T13:39:48.859Z,3.56
2023-01-18T13:42:35.054Z,3.53
2023-01-18T13:45:28.450Z,3.52
2023-01-18T13:48:00.011Z,3.69
2023-01-18T13:50:54.789Z,3.77
2023-01-18T13:53:27.044Z,3.67
2023-01-18T13:56:27.489Z,3.62
2023-01-18T13:59:19.720Z,3.52
2023-01-18T14:01:49.893Z,3.35
2023-01-18T14:04:31.752Z,3.19
2023-01-18T14:07:02.254Z,3.09
2023-01-18T14:09:36.191Z,3.07
2023-01-18T14:12:06.659Z,2.90
2023-01-18T14:14:36.491Z,2.76
2023-01-18T14:17:15.592Z,2.76
2023-01-18T14:20:26.588Z,2.77
2023-01-18T14:23:06.808Z,2.80
2023-01-18T14:25:58.180Z,2.84
2023-01-18T14:28:36.340Z,2.81
2023-01-18T14:31:05.682Z,2.87
2023-01-18T14:33:36.567Z,2.91
2023-01-18T14:36:06.618Z,2.88
2023-01-18T14:38:34.455Z,2.88
2023-01-18T14:41:07.315Z,2.85
2023-01-18T14:43:38.430Z,2.83
2023-01-18T14:46:11.071Z,2.83
2023-01-18T14:48:47.701Z,2.83
2023-01-18T14:51:18.444Z,2.84
2023-01-18T14:53:49.284Z,2.81
2023-01-18T14:56:20.845Z,2.79
2023-01-18T14:58:55.243Z,2.73
2023-01-18T15:01:32.738Z,2.74
2023-01-18T15:04:02.881Z,2.61
2023-01-18T15:06:38.121Z,2.57
2023-01-18T15:09:07.684Z,2.57
2023-01-18T15:11:36.952Z,2.60
2023-01-18T15:14:11.287Z,2.53
2023-01-18T15:16:40.162Z,2.54
2023-01-18T15:19:16.657Z,2.52
2023-01-18T15:21:48.688Z,2.46
2023-01-18T15:24:19.727Z,2.49
2023-01-18T15:26:52.140Z,2.37
2023-01-18T15:29:26.299Z,2.33
2023-01-18T15:31:56.133Z,2.33
2023-01-18T15:34:29.625Z,2.29
2023-01-18T15:36:59.344Z,2.18
2023-01-18T15:39:27.747Z,2.18
2023-01-18T15:41:57.584Z,2.15
2023-01-18T15:44:36.885Z,2.09
2023-01-18T15:47:14.388Z,2.03
2023-01-18T15:49:44.784Z,2.03
2023-01-18T15:52:12.649Z,1.95
2023-01-18T15:54:40.934Z,1.92
2023-01-18T15:57:13.660Z,1.86
2023-01-18T15:59:43.727Z,1.89
2023-01-18T16:02:20.031Z,1.89
2023-01-18T16:04:48.082Z,1.85
2023-01-18T16:07:37.480Z,1.75
2023-01-18T16:10:27.950Z,1.68
2023-01-18T16:12:57.403Z,1.58
2023-01-18T16:15:28.226Z,1.62
2023-01-18T16:18:03.336Z,1.61
2023-01-18T16:20:33.286Z,1.55
2023-01-18T16:23:08.472Z,1.52
2023-01-18T16:25:37.679Z,1.51
2023-01-18T16:28:05.894Z,1.51
2023-01-18T16:30:37.449Z,1.47
2023-01-18T16:33:10.499Z,1.30
2023-01-18T16:35:39.831Z,1.33
2023-01-18T16:38:11.667Z,1.27
2023-01-18T16:40:42.832Z,1.24
2023-01-18T16:43:24.256Z,1.24
2023-01-18T16:45:55.721Z,1.19
2023-01-18T16:48:25.743Z,1.26
2023-01-18T16:50:55.770Z,1.22
2023-01-18T16:53:23.825Z,1.20
2023-01-18T16:55:51.653Z,1.20
2023-01-18T16:58:21.183Z,1.19
2023-01-18T17:00:54.707Z,1.17
2023-01-18T17:03:22.786Z,1.13
2023-01-18T17:05:50.737Z,1.06
2023-01-18T17:08:18.771Z,1.09
2023-01-18T17:10:48.358Z,1.06
2023-01-18T17:13:16.574Z,1.07
2023-01-18T17:15:45.454Z,1.10
2023-01-18T17:18:16.773Z,1.04
2023-01-18T17:20:45.239Z,1.07
2023-01-18T17:23:13.623Z,1.00
2023-01-18T17:25:41.515Z,0.97
2023-01-18T17:28:10.983Z,0.93
2023-01-18T17:30:38.756Z,0.95
2023-01-18T17:33:06.609Z,0.95
2023-01-18T17:35:35.749Z,0.90
2023-01-18T17:38:11.470Z,0.83
2023-01-18T17:40:43.662Z,0.85
2023-01-18T17:43:15.185Z,0.89
2023-01-18T17:45:48.393Z,0.83
2023-01-18T17:48:19.324Z,0.86
2023-01-18T17:50:48.467Z,0.88
2023-01-18T17:53:16.391Z,0.79
2023-01-18T17:55:44.208Z,0.86
2023-01-18T17:58:12.059Z,0.89
2023-01-18T18:00:39.834Z,0.88
2023-01-18T18:03:08.086Z,0.82
2023-01-18T18:05:36.175Z,0.83
2023-01-18T18:08:05.644Z,0.85
2023-01-18T18:10:33.444Z,0.85
2023-01-18T18:13:01.705Z,0.85
2023-01-18T18:15:29.792Z,0.86
2023-01-18T18:17:57.577Z,0.89
2023-01-18T18:20:25.409Z,0.86
2023-01-18T18:22:53.206Z,0.89
2023-01-18T18:25:22.388Z,0.86
2023-01-18T18:27:50.200Z,0.83
2023-01-18T18:30:18.782Z,0.86
2023-01-18T18:32:46.559Z,0.88
2023-01-18T18:35:25.151Z,0.85
2023-01-18T18:37:55.388Z,0.88
2023-01-18T18:40:25.011Z,0.88
2023-01-18T18:43:01.670Z,0.88
2023-01-18T18:45:31.697Z,0.89
2023-01-18T18:47:59.861Z,0.90
2023-01-18T18:50:28.442Z,0.88
2023-01-18T18:52:56.929Z,0.88
2023-01-18T18:55:26.158Z,0.88
2023-01-18T18:57:54.074Z,0.85
2023-01-18T19:00:22.571Z,0.89
2023-01-18T19:02:50.426Z,0.88
2023-01-18T19:05:18.371Z,0.86
2023-01-18T19:07:47.549Z,0.90
2023-01-18T19:10:15.547Z,0.90
2023-01-18T19:12:44.649Z,0.83
2023-01-18T19:15:12.577Z,0.80
2023-01-18T19:17:40.350Z,0.80
2023-01-18T19:20:09.999Z,0.88
2023-01-18T19:22:38.635Z,0.83
2023-01-18T19:25:07.593Z,0.80
2023-01-18T19:27:35.591Z,0.83
2023-01-18T19:30:10.548Z,0.83
2023-01-18T19:32:38.533Z,0.83
2023-01-18T19:35:06.995Z,0.85
2023-01-18T19:37:34.902Z,0.85
2023-01-18T19:40:02.663Z,0.90
2023-01-18T19:42:30.701Z,0.89
2023-01-18T19:44:59.402Z,0.86
2023-01-18T19:47:28.686Z,0.85
2023-01-18T19:49:57.415Z,0.82
2023-01-18T19:52:25.597Z,0.83
2023-01-18T19:54:53.438Z,0.82
2023-01-18T19:57:21.317Z,0.83
2023-01-18T19:59:49.140Z,0.88
2023-01-18T20:02:17.155Z,0.90
2023-01-18T20:04:47.439Z,0.89
2023-01-18T20:07:16.344Z,0.89
2023-01-18T20:09:44.197Z,0.93
2023-01-18T20:12:13.376Z,0.92
2023-01-18T20:14:42.432Z,0.90
2023-01-18T20:17:10.435Z,0.88
2023-01-18T20:19:38.295Z,0.88
2023-01-18T20:22:07.517Z,0.89
2023-01-18T20:24:35.540Z,0.90
2023-01-18T20:27:15.436Z,0.93
2023-01-18T20:29:44.557Z,0.93
2023-01-18T20:32:16.513Z,0.93
2023-01-18T20:34:46.575Z,0.96
2023-01-18T20:37:16.677Z,0.89
2023-01-18T20:39:44.457Z,0.90
2023-01-18T20:42:12.273Z,0.89
2023-01-18T20:44:40.476Z,0.89
2023-01-18T20:47:09.423Z,0.90
2023-01-18T20:49:40.177Z,0.99
2023-01-18T20:52:08.295Z,1.01
2023-01-18T20:54:37.852Z,1.06
2023-01-18T20:57:05.861Z,1.07
2023-01-18T20:59:33.855Z,1.06
2023-01-18T21:02:03.109Z,1.06
2023-01-18T21:04:31.200Z,1.09
2023-01-18T21:06:59.579Z,1.04
2023-01-18T21:09:27.478Z,1.01
2023-01-18T21:11:56.593Z,1.01
2023-01-18T21:14:24.632Z,1.03
2023-01-18T21:16:52.418Z,0.99
2023-01-18T21:19:22.578Z,1.03
2023-01-18T21:21:50.386Z,1.13
2023-01-18T21:24:18.153Z,1.15
2023-01-18T21:26:45.912Z,1.17
2023-01-18T21:29:15.092Z,1.20
2023-01-18T21:31:42.938Z,1.27
2023-01-18T21:34:10.932Z,1.29
2023-01-18T21:36:38.727Z,1.33
2023-01-18T21:39:08.152Z,1.34
2023-01-18T21:41:53.388Z,1.34
2023-01-18T21:44:40.039Z,1.41
2023-01-18T21:47:07.796Z,1.43
2023-01-18T21:52:58.058Z,1.47
2023-01-18T21:55:25.849Z,1.48
2023-01-18T21:58:07.582Z,1.46
2023-01-18T22:00:39.414Z,1.48
2023-01-18T22:03:07.514Z,1.48
2023-01-18T22:05:34.362Z,1.43
2023-01-18T22:08:02.390Z,1.44
2023-01-18T22:10:30.379Z,1.43
2023-01-18T22:12:58.159Z,1.43
2023-01-18T22:15:26.043Z,1.40
2023-01-18T22:17:55.209Z,1.37
2023-01-18T22:20:22.980Z,1.37
2023-01-18T22:22:51.029Z,1.40
2023-01-18T22:25:18.784Z,1.39
2023-01-18T22:27:46.563Z,1.33
2023-01-18T22:30:14.788Z,1.30
2023-01-18T22:32:42.536Z,1.22
2023-01-18T22:35:11.931Z,1.15
2023-01-18T22:37:39.565Z,1.04
2023-01-18T22:40:09.101Z,0.92
2023-01-18T22:42:36.921Z,0.88
2023-01-18T22:45:05.187Z,0.83
2023-01-18T22:47:32.990Z,0.83
2023-01-18T22:50:00.770Z,0.86
2023-01-18T22:52:29.953Z,0.85
2023-01-18T22:54:57.703Z,0.79
2023-01-18T22:57:26.193Z,0.78
2023-01-18T22:59:53.938Z,0.82
2023-01-18T23:02:21.717Z,0.88
2023-01-18T23:04:49.466Z,0.86
2023-01-18T23:07:17.475Z,0.92
2023-01-18T23:09:46.618Z,0.95
2023-01-18T23:12:16.461Z,0.97
2023-01-18T23:15:01.596Z,0.99
2023-01-18T23:17:42.994Z,0.97
2023-01-18T23:20:14.850Z,1.01
2023-01-18T23:22:44.563Z,1.01
2023-01-18T23:25:13.715Z,1.03
2023-01-18T23:27:41.629Z,1.06
2023-01-18T23:30:11.601Z,1.03
2023-01-18T23:32:39.408Z,1.01
2023-01-18T23:35:08.207Z,1.03
2023-01-18T23:37:35.935Z,1.04
2023-01-18T23:40:21.431Z,1.06
2023-01-18T23:43:11.449Z,1.07
2023-01-18T23:45:56.895Z,1.04
2023-01-18T23:48:42.376Z,0.97
2023-01-18T23:51:28.001Z,0.99
2023-01-18T23:54:15.151Z,1.03
2023-01-18T23:56:43.115Z,1.07
2023-01-18T23:59:13.759Z,1.06
